sensor_id;sensor_type;location;lat;lon;timestamp;pressure;altitude;pressure_sealevel;temperature;humidity
13954;BME280;7049;49.444;8.522;2022-11-15T00:02:01;77788.78;;;-3.47;90.61
13954;BME280;7049;49.444;8.522;2022-11-15T00:07:04;77782.50;;;-3.47;90.56
13954;BME280;7049;49.444;8.522;2022-11-15T00:12:07;77776.22;;;-3.47;89.61
13954;BME280;7049;49.444;8.522;2022-11-15T00:17:08;77767.84;;;-3.47;89.11
13954;BME280;7049;49.444;8.522;2022-11-15T00:22:10;77763.66;;;-3.47;88.61
13954;BME280;7049;49.444;8.522;2022-11-15T00:27:13;77757.38;;;-3.47;88.45
13954;BME280;7049;49.444;8.522;2022-11-15T00:32:14;77744.84;;;-3.47;88.10
13954;BME280;7049;49.444;8.522;2022-11-15T00:37:16;77734.38;;;-3.47;87.81
13954;BME280;7049;49.444;8.522;2022-11-15T00:42:18;77738.56;;;-3.47;87.62
13954;BME280;7049;49.444;8.522;2022-11-15T00:47:20;77738.56;;;-3.47;87.80
13954;BME280;7049;49.444;8.522;2022-11-15T00:52:21;77736.47;;;-3.47;87.85
13954;BME280;7049;49.444;8.522;2022-11-15T00:57:24;77734.38;;;-3.47;87.83
13954;BME280;7049;49.444;8.522;2022-11-15T01:02:25;77738.56;;;-3.47;87.94
13954;BME280;7049;49.444;8.522;2022-11-15T01:07:28;77738.56;;;-3.47;87.81
13954;BME280;7049;49.444;8.522;2022-11-15T01:12:31;77736.47;;;-3.47;87.86
13954;BME280;7049;49.444;8.522;2022-11-15T01:17:32;77721.81;;;-3.47;87.34
13954;BME280;7049;49.444;8.522;2022-11-15T01:22:34;77721.81;;;-3.47;86.78
13954;BME280;7049;49.444;8.522;2022-11-15T01:27:36;77711.34;;;-3.47;86.55
13954;BME280;7049;49.444;8.522;2022-11-15T01:32:38;77717.63;;;-3.47;86.11
13954;BME280;7049;49.444;8.522;2022-11-15T01:37:39;77715.53;;;-3.47;86.06
13954;BME280;7049;49.444;8.522;2022-11-15T01:42:42;77721.81;;;-3.47;86.56
13954;BME280;7049;49.444;8.522;2022-11-15T01:47:45;77721.81;;;-3.47;86.17
13954;BME280;7049;49.444;8.522;2022-11-15T01:52:48;77732.28;;;-3.47;86.90
13954;BME280;7049;49.444;8.522;2022-11-15T01:57:53;77742.75;;;-3.47;87.50
13954;BME280;7049;49.444;8.522;2022-11-15T02:02:56;77746.94;;;-3.47;87.77
13954;BME280;7049;49.444;8.522;2022-11-15T02:07:59;77746.94;;;-3.47;87.73
13954;BME280;7049;49.444;8.522;2022-11-15T02:13:02;77746.94;;;-3.47;87.71
13954;BME280;7049;49.444;8.522;2022-11-15T02:18:12;77738.56;;;-3.47;87.42
13954;BME280;7049;49.444;8.522;2022-11-15T02:29:05;77726.00;;;-3.47;87.13
13954;BME280;7049;49.444;8.522;2022-11-15T02:34:18;77719.72;;;-3.47;87.45
13954;BME280;7049;49.444;8.522;2022-11-15T02:39:28;77717.63;;;-3.47;87.66
13954;BME280;7049;49.444;8.522;2022-11-15T02:44:34;77715.53;;;-3.47;87.55
13954;BME280;7049;49.444;8.522;2022-11-15T02:49:41;77705.09;;;-3.47;87.34
13954;BME280;7049;49.444;8.522;2022-11-15T02:54:53;77709.25;;;-3.47;87.47
13954;BME280;7049;49.444;8.522;2022-11-15T03:00:04;77709.25;;;-3.47;87.06
13954;BME280;7049;49.444;8.522;2022-11-15T03:05:15;77715.53;;;-3.47;87.51
13954;BME280;7049;49.444;8.522;2022-11-15T03:10:23;77721.81;;;-3.47;88.07
13954;BME280;7049;49.444;8.522;2022-11-15T03:15:29;77709.25;;;-3.47;88.17
13954;BME280;7049;49.444;8.522;2022-11-15T03:20:35;77705.09;;;-3.47;88.45
13954;BME280;7049;49.444;8.522;2022-11-15T03:25:41;77715.53;;;-3.47;88.39
13954;BME280;7049;49.444;8.522;2022-11-15T03:30:45;77726.00;;;-3.47;88.93
13954;BME280;7049;49.444;8.522;2022-11-15T03:35:52;77719.72;;;-3.47;88.75
13954;BME280;7049;49.444;8.522;2022-11-15T03:40:58;77713.44;;;-3.47;89.06
13954;BME280;7049;49.444;8.522;2022-11-15T03:46:01;77711.34;;;-3.47;88.98
13954;BME280;7049;49.444;8.522;2022-11-15T03:51:06;77711.34;;;-3.47;88.69
13954;BME280;7049;49.444;8.522;2022-11-15T03:56:07;77711.34;;;-3.47;89.01
13954;BME280;7049;49.444;8.522;2022-11-15T04:01:09;77713.44;;;-3.47;89.24
13954;BME280;7049;49.444;8.522;2022-11-15T04:06:12;77713.44;;;-3.47;89.78
13954;BME280;7049;49.444;8.522;2022-11-15T04:11:13;77711.34;;;-3.47;90.44
13954;BME280;7049;49.444;8.522;2022-11-15T04:16:15;77715.53;;;-3.47;90.29
13954;BME280;7049;49.444;8.522;2022-11-15T04:21:17;77713.44;;;-3.47;89.88
13954;BME280;7049;49.444;8.522;2022-11-15T04:26:36;77707.16;;;-3.47;90.00
13954;BME280;7049;49.444;8.522;2022-11-15T04:31:38;77696.72;;;-3.47;89.88
13954;BME280;7049;49.444;8.522;2022-11-15T04:36:41;77694.63;;;-3.47;89.76
13954;BME280;7049;49.444;8.522;2022-11-15T04:42:00;77698.81;;;-3.47;89.94
13954;BME280;7049;49.444;8.522;2022-11-15T04:47:02;77692.53;;;-3.47;90.19
13954;BME280;7049;49.444;8.522;2022-11-15T04:52:05;77700.91;;;-3.47;90.14
13954;BME280;7049;49.444;8.522;2022-11-15T04:57:06;77688.34;;;-3.47;90.22
13954;BME280;7049;49.444;8.522;2022-11-15T05:02:08;77692.53;;;-3.47;90.38
13954;BME280;7049;49.444;8.522;2022-11-15T05:07:11;77688.34;;;-3.47;90.60
13954;BME280;7049;49.444;8.522;2022-11-15T05:12:12;77690.44;;;-3.47;91.17
13954;BME280;7049;49.444;8.522;2022-11-15T05:17:14;77692.53;;;-3.47;91.71
13954;BME280;7049;49.444;8.522;2022-11-15T05:22:17;77692.53;;;-3.47;92.08
13954;BME280;7049;49.444;8.522;2022-11-15T05:27:18;77692.53;;;-3.47;91.94
13954;BME280;7049;49.444;8.522;2022-11-15T05:32:20;77675.78;;;-3.47;91.33
13954;BME280;7049;49.444;8.522;2022-11-15T05:37:23;77682.06;;;-3.47;91.43
13954;BME280;7049;49.444;8.522;2022-11-15T05:42:26;77690.44;;;-3.47;91.82
13954;BME280;7049;49.444;8.522;2022-11-15T05:47:28;77688.34;;;-3.47;91.88
13954;BME280;7049;49.444;8.522;2022-11-15T05:52:34;77675.78;;;-3.47;91.31
13954;BME280;7049;49.444;8.522;2022-11-15T05:57:38;77686.25;;;-3.47;91.49
13954;BME280;7049;49.444;8.522;2022-11-15T06:02:39;77677.88;;;-3.47;92.03
13954;BME280;7049;49.444;8.522;2022-11-15T06:07:42;77684.16;;;-3.47;92.32
13954;BME280;7049;49.444;8.522;2022-11-15T06:12:44;77684.16;;;-3.47;92.62
13954;BME280;7049;49.444;8.522;2022-11-15T06:17:46;77692.53;;;-3.47;92.74
13954;BME280;7049;49.444;8.522;2022-11-15T06:22:49;77684.16;;;-3.47;92.03
13954;BME280;7049;49.444;8.522;2022-11-15T06:27:51;77684.16;;;-3.47;91.60
13954;BME280;7049;49.444;8.522;2022-11-15T06:32:58;77677.88;;;-3.47;91.60
13954;BME280;7049;49.444;8.522;2022-11-15T06:38:04;77673.69;;;-3.47;91.43
13954;BME280;7049;49.444;8.522;2022-11-15T06:43:06;77671.59;;;-3.47;91.25
13954;BME280;7049;49.444;8.522;2022-11-15T06:48:08;77675.78;;;-3.47;91.54
13954;BME280;7049;49.444;8.522;2022-11-15T06:53:11;77669.50;;;-3.47;91.64
13954;BME280;7049;49.444;8.522;2022-11-15T06:58:12;77673.69;;;-3.47;91.49
13954;BME280;7049;49.444;8.522;2022-11-15T07:03:14;77663.22;;;-3.47;91.50
13954;BME280;7049;49.444;8.522;2022-11-15T07:08:17;77669.50;;;-3.47;91.43
13954;BME280;7049;49.444;8.522;2022-11-15T07:13:18;77665.31;;;-3.47;91.81
13954;BME280;7049;49.444;8.522;2022-11-15T07:18:20;77675.78;;;-3.47;92.33
13954;BME280;7049;49.444;8.522;2022-11-15T07:23:23;77667.41;;;-3.47;92.49
13954;BME280;7049;49.444;8.522;2022-11-15T07:28:24;77671.59;;;-3.47;92.58
13954;BME280;7049;49.444;8.522;2022-11-15T07:33:26;77671.59;;;-3.47;92.52
13954;BME280;7049;49.444;8.522;2022-11-15T07:38:29;77671.59;;;-3.47;92.41
13954;BME280;7049;49.444;8.522;2022-11-15T07:43:31;77648.59;;;-3.47;91.35
13954;BME280;7049;49.444;8.522;2022-11-15T07:48:34;77642.31;;;-3.47;90.47
13954;BME280;7049;49.444;8.522;2022-11-15T07:53:37;77636.03;;;-3.47;89.76
13954;BME280;7049;49.444;8.522;2022-11-15T07:58:38;77633.94;;;-3.47;89.72
13954;BME280;7049;49.444;8.522;2022-11-15T08:03:40;77621.38;;;-3.47;89.53
13954;BME280;7049;49.444;8.522;2022-11-15T08:08:43;77613.00;;;-3.47;90.19
13954;BME280;7049;49.444;8.522;2022-11-15T08:13:44;77592.09;;;-3.47;89.92
13954;BME280;7049;49.444;8.522;2022-11-15T08:18:46;77587.91;;;-3.47;90.20
13954;BME280;7049;49.444;8.522;2022-11-15T08:23:50;77579.53;;;-3.47;90.33
13954;BME280;7049;49.444;8.522;2022-11-15T08:28:52;77579.53;;;-3.47;90.66
13954;BME280;7049;49.444;8.522;2022-11-15T08:33:53;77560.72;;;-3.47;90.32
13954;BME280;7049;49.444;8.522;2022-11-15T08:38:56;77552.34;;;-3.47;90.58
13954;BME280;7049;49.444;8.522;2022-11-15T08:43:58;77541.88;;;-3.47;90.20
13954;BME280;7049;49.444;8.522;2022-11-15T08:48:59;77535.59;;;-3.47;90.69
13954;BME280;7049;49.444;8.522;2022-11-15T08:54:02;77535.59;;;-3.47;91.16
13954;BME280;7049;49.444;8.522;2022-11-15T08:59:03;77531.41;;;-3.47;91.04
13954;BME280;7049;49.444;8.522;2022-11-15T09:04:05;77527.22;;;-3.47;90.82
13954;BME280;7049;49.444;8.522;2022-11-15T09:09:08;77525.13;;;-3.47;90.95
13954;BME280;7049;49.444;8.522;2022-11-15T09:14:10;77516.78;;;-3.47;90.97
13954;BME280;7049;49.444;8.522;2022-11-15T09:19:12;77500.03;;;-3.47;90.90
13954;BME280;7049;49.444;8.522;2022-11-15T09:24:16;77483.28;;;-3.47;88.64
13954;BME280;7049;49.444;8.522;2022-11-15T09:29:18;77462.38;;;-3.47;88.25
13954;BME280;7049;49.444;8.522;2022-11-15T09:34:20;77441.44;;;-3.47;87.46
13954;BME280;7049;49.444;8.522;2022-11-15T09:39:23;77422.63;;;-3.47;87.05
13954;BME280;7049;49.444;8.522;2022-11-15T09:44:41;77399.59;;;-3.47;86.16
13954;BME280;7049;49.444;8.522;2022-11-15T09:49:43;77364.03;;;-3.47;85.07
13954;BME280;7049;49.444;8.522;2022-11-15T09:54:48;77345.22;;;-3.47;84.75
13954;BME280;7049;49.444;8.522;2022-11-15T10:00:08;77338.94;;;-3.47;84.31
13954;BME280;7049;49.444;8.522;2022-11-15T10:05:15;77332.66;;;-3.47;83.62
13954;BME280;7049;49.444;8.522;2022-11-15T10:10:25;77324.28;;;-3.47;83.86
13954;BME280;7049;49.444;8.522;2022-11-15T10:15:28;77328.47;;;-3.47;82.89
13954;BME280;7049;49.444;8.522;2022-11-15T10:20:34;77320.09;;;-3.47;82.93
13954;BME280;7049;49.444;8.522;2022-11-15T10:25:42;77311.72;;;-3.47;82.81
13954;BME280;7049;49.444;8.522;2022-11-15T10:30:47;77297.09;;;-3.47;82.10
13954;BME280;7049;49.444;8.522;2022-11-15T10:41:17;77286.63;;;-3.47;81.89
13954;BME280;7049;49.444;8.522;2022-11-15T10:46:20;77278.25;;;-3.47;81.75
13954;BME280;7049;49.444;8.522;2022-11-15T10:51:25;77263.63;;;-3.47;81.38
13954;BME280;7049;49.444;8.522;2022-11-15T10:56:29;77248.97;;;-3.47;80.90
13954;BME280;7049;49.444;8.522;2022-11-15T11:01:45;77242.69;;;-3.47;81.24
13954;BME280;7049;49.444;8.522;2022-11-15T11:06:48;77234.31;;;-3.47;81.82
13954;BME280;7049;49.444;8.522;2022-11-15T11:11:52;77219.69;;;-3.47;81.10
13954;BME280;7049;49.444;8.522;2022-11-15T11:16:55;77213.41;;;-3.47;81.99
13954;BME280;7049;49.444;8.522;2022-11-15T11:22:04;77202.94;;;-3.47;82.67
13954;BME280;7049;49.444;8.522;2022-11-15T11:27:33;77192.47;;;-3.47;84.06
13954;BME280;7049;49.444;8.522;2022-11-15T11:32:50;77163.19;;;-3.47;81.46
13954;BME280;7049;49.444;8.522;2022-11-15T11:38:11;77144.38;;;-3.47;82.16
13954;BME280;7049;49.444;8.522;2022-11-15T11:43:22;77131.81;;;-3.47;81.04
13954;BME280;7049;49.444;8.522;2022-11-15T11:48:40;77102.53;;;-3.47;79.61
13954;BME280;7049;49.444;8.522;2022-11-15T11:53:46;77098.34;;;-3.47;80.35
13954;BME280;7049;49.444;8.522;2022-11-15T11:58:52;77092.06;;;-3.47;79.63
13954;BME280;7049;49.444;8.522;2022-11-15T12:03:57;77081.59;;;-3.47;80.20
13954;BME280;7049;49.444;8.522;2022-11-15T12:09:06;77071.13;;;-3.47;80.27
13954;BME280;7049;49.444;8.522;2022-11-15T12:14:15;77052.31;;;-3.47;79.69
13954;BME280;7049;49.444;8.522;2022-11-15T12:19:19;77043.94;;;-3.47;80.74
13954;BME280;7049;49.444;8.522;2022-11-15T12:24:24;77031.41;;;-3.47;81.01
13954;BME280;7049;49.444;8.522;2022-11-15T12:29:32;77035.56;;;-3.47;80.49
13954;BME280;7049;49.444;8.522;2022-11-15T12:34:40;77031.41;;;-3.47;80.51
13954;BME280;7049;49.444;8.522;2022-11-15T12:40:16;77033.47;;;-3.47;80.25
13954;BME280;7049;49.444;8.522;2022-11-15T12:45:31;77027.22;;;-3.47;80.65
13954;BME280;7049;49.444;8.522;2022-11-15T12:50:55;77027.22;;;-3.47;78.83
13954;BME280;7049;49.444;8.522;2022-11-15T12:56:18;77029.31;;;-3.47;79.34
13954;BME280;7049;49.444;8.522;2022-11-15T13:01:57;77025.13;;;-3.47;77.67
13954;BME280;7049;49.444;8.522;2022-11-15T13:07:01;77023.03;;;-3.47;78.42
13954;BME280;7049;49.444;8.522;2022-11-15T13:12:07;77014.66;;;-3.47;78.20
13954;BME280;7049;49.444;8.522;2022-11-15T13:17:34;77006.28;;;-3.47;76.82
13954;BME280;7049;49.444;8.522;2022-11-15T13:22:38;77016.75;;;-3.47;77.61
13954;BME280;7049;49.444;8.522;2022-11-15T13:27:54;77006.28;;;-3.47;77.41
13954;BME280;7049;49.444;8.522;2022-11-15T13:33:05;77004.19;;;-3.47;77.74
13954;BME280;7049;49.444;8.522;2022-11-15T13:38:18;76997.91;;;-3.47;77.80
13954;BME280;7049;49.444;8.522;2022-11-15T13:43:28;77010.47;;;-3.47;78.73
13954;BME280;7049;49.444;8.522;2022-11-15T13:48:32;77006.28;;;-3.47;78.88
13954;BME280;7049;49.444;8.522;2022-11-15T13:53:36;76997.91;;;-3.47;78.27
13954;BME280;7049;49.444;8.522;2022-11-15T13:58:40;76991.66;;;-3.47;78.72
13954;BME280;7049;49.444;8.522;2022-11-15T14:03:48;76972.81;;;-3.47;77.14
13954;BME280;7049;49.444;8.522;2022-11-15T14:09:00;76968.63;;;-3.47;77.33
13954;BME280;7049;49.444;8.522;2022-11-15T14:14:11;76966.53;;;-3.47;77.48
13954;BME280;7049;49.444;8.522;2022-11-15T14:19:35;76958.16;;;-3.47;77.38
13954;BME280;7049;49.444;8.522;2022-11-15T14:24:37;76951.91;;;-3.47;77.82
13954;BME280;7049;49.444;8.522;2022-11-15T14:29:39;76943.53;;;-3.47;78.00
13954;BME280;7049;49.444;8.522;2022-11-15T14:34:42;76949.81;;;-3.47;78.46
13954;BME280;7049;49.444;8.522;2022-11-15T14:39:44;76947.72;;;-3.47;79.21
13954;BME280;7049;49.444;8.522;2022-11-15T14:44:45;76949.81;;;-3.47;80.21
13954;BME280;7049;49.444;8.522;2022-11-15T14:49:49;76943.53;;;-3.47;81.18
13954;BME280;7049;49.444;8.522;2022-11-15T14:54:50;76941.44;;;-3.47;82.18
13954;BME280;7049;49.444;8.522;2022-11-15T14:59:52;76939.34;;;-3.47;82.99
13954;BME280;7049;49.444;8.522;2022-11-15T15:04:54;76928.88;;;-3.47;83.81
13954;BME280;7049;49.444;8.522;2022-11-15T15:09:58;76935.16;;;-3.47;83.97
13954;BME280;7049;49.444;8.522;2022-11-15T15:14:59;76930.97;;;-3.47;83.81
13954;BME280;7049;49.444;8.522;2022-11-15T15:20:05;76939.34;;;-3.47;83.87
13954;BME280;7049;49.444;8.522;2022-11-15T15:25:23;76935.16;;;-3.47;84.13
13954;BME280;7049;49.444;8.522;2022-11-15T15:30:27;76935.16;;;-3.47;84.45
13954;BME280;7049;49.444;8.522;2022-11-15T15:35:33;76935.16;;;-3.47;85.08
13954;BME280;7049;49.444;8.522;2022-11-15T15:40:34;76947.72;;;-3.47;85.52
13954;BME280;7049;49.444;8.522;2022-11-15T15:45:37;76945.63;;;-3.47;86.24
13954;BME280;7049;49.444;8.522;2022-11-15T15:50:41;76954.00;;;-3.47;87.08
13954;BME280;7049;49.444;8.522;2022-11-15T15:55:43;76951.91;;;-3.47;86.61
13954;BME280;7049;49.444;8.522;2022-11-15T16:00:44;76947.72;;;-3.47;85.57
13954;BME280;7049;49.444;8.522;2022-11-15T16:05:49;76939.34;;;-3.47;84.18
13954;BME280;7049;49.444;8.522;2022-11-15T16:10:50;76939.34;;;-3.47;83.81
13954;BME280;7049;49.444;8.522;2022-11-15T16:15:53;76939.34;;;-3.47;83.95
13954;BME280;7049;49.444;8.522;2022-11-15T16:20:57;76939.34;;;-3.47;84.14
13954;BME280;7049;49.444;8.522;2022-11-15T16:26:00;76947.72;;;-3.47;84.07
13954;BME280;7049;49.444;8.522;2022-11-15T16:31:05;76939.34;;;-3.47;83.71
13954;BME280;7049;49.444;8.522;2022-11-15T16:36:18;76939.34;;;-3.47;83.90
13954;BME280;7049;49.444;8.522;2022-11-15T16:41:20;76939.34;;;-3.47;84.06
13954;BME280;7049;49.444;8.522;2022-11-15T16:46:24;76935.16;;;-3.47;84.51
13954;BME280;7049;49.444;8.522;2022-11-15T16:51:27;76930.97;;;-3.47;85.11
13954;BME280;7049;49.444;8.522;2022-11-15T16:56:30;76930.97;;;-3.47;85.36
13954;BME280;7049;49.444;8.522;2022-11-15T17:01:33;76926.78;;;-3.47;84.48
13954;BME280;7049;49.444;8.522;2022-11-15T17:06:37;76926.78;;;-3.47;84.16
13954;BME280;7049;49.444;8.522;2022-11-15T17:11:40;76914.25;;;-3.47;84.16
13954;BME280;7049;49.444;8.522;2022-11-15T17:16:43;76914.25;;;-3.47;84.21
13954;BME280;7049;49.444;8.522;2022-11-15T17:21:47;76897.50;;;-3.47;83.52
13954;BME280;7049;49.444;8.522;2022-11-15T17:26:50;76889.13;;;-3.47;82.62
13954;BME280;7049;49.444;8.522;2022-11-15T17:31:52;76889.13;;;-3.47;82.74
13954;BME280;7049;49.444;8.522;2022-11-15T17:36:56;76887.06;;;-3.47;82.16
13954;BME280;7049;49.444;8.522;2022-11-15T17:41:58;76887.06;;;-3.47;82.24
13954;BME280;7049;49.444;8.522;2022-11-15T17:47:00;76880.78;;;-3.47;82.06
13954;BME280;7049;49.444;8.522;2022-11-15T17:52:04;76876.59;;;-3.47;82.23
13954;BME280;7049;49.444;8.522;2022-11-15T17:57:05;76874.50;;;-3.47;81.84
13954;BME280;7049;49.444;8.522;2022-11-15T18:02:08;76876.59;;;-3.47;82.16
13954;BME280;7049;49.444;8.522;2022-11-15T18:07:11;76870.31;;;-3.47;82.08
13954;BME280;7049;49.444;8.522;2022-11-15T18:12:13;76866.13;;;-3.47;81.78
13954;BME280;7049;49.444;8.522;2022-11-15T18:17:14;76859.84;;;-3.47;81.44
13954;BME280;7049;49.444;8.522;2022-11-15T18:22:19;76843.13;;;-3.47;81.19
13954;BME280;7049;49.444;8.522;2022-11-15T18:27:21;76843.13;;;-3.47;81.17
13954;BME280;7049;49.444;8.522;2022-11-15T18:32:22;76828.47;;;-3.47;80.82
13954;BME280;7049;49.444;8.522;2022-11-15T18:37:25;76830.56;;;-3.47;81.06
13954;BME280;7049;49.444;8.522;2022-11-15T18:42:26;76830.56;;;-3.47;80.64
13954;BME280;7049;49.444;8.522;2022-11-15T18:47:32;76828.47;;;-3.47;80.74
13954;BME280;7049;49.444;8.522;2022-11-15T18:52:35;76820.09;;;-3.47;80.58
13954;BME280;7049;49.444;8.522;2022-11-15T18:57:36;76820.09;;;-3.47;80.75
13954;BME280;7049;49.444;8.522;2022-11-15T19:02:38;76818.00;;;-3.47;81.21
13954;BME280;7049;49.444;8.522;2022-11-15T19:07:41;76830.56;;;-3.47;81.80
13954;BME280;7049;49.444;8.522;2022-11-15T19:12:42;76832.66;;;-3.47;81.65
13954;BME280;7049;49.444;8.522;2022-11-15T19:17:46;76830.56;;;-3.47;82.42
13954;BME280;7049;49.444;8.522;2022-11-15T19:22:49;76834.75;;;-3.47;83.68
13954;BME280;7049;49.444;8.522;2022-11-15T19:27:50;76834.75;;;-3.47;85.33
13954;BME280;7049;49.444;8.522;2022-11-15T19:32:51;76838.94;;;-3.47;86.03
13954;BME280;7049;49.444;8.522;2022-11-15T19:37:54;76838.94;;;-3.47;86.94
13954;BME280;7049;49.444;8.522;2022-11-15T19:42:56;76841.03;;;-3.47;87.71
13954;BME280;7049;49.444;8.522;2022-11-15T19:47:57;76849.41;;;-3.47;88.29
13954;BME280;7049;49.444;8.522;2022-11-15T19:53:00;76849.41;;;-3.47;88.67
13954;BME280;7049;49.444;8.522;2022-11-15T19:58:01;76847.31;;;-3.47;87.75
13954;BME280;7049;49.444;8.522;2022-11-15T20:03:03;76845.22;;;-3.47;87.62
13954;BME280;7049;49.444;8.522;2022-11-15T20:08:06;76838.94;;;-3.47;88.40
13954;BME280;7049;49.444;8.522;2022-11-15T20:13:07;76843.13;;;-3.47;88.69
13954;BME280;7049;49.444;8.522;2022-11-15T20:18:09;76849.41;;;-3.47;89.19
13954;BME280;7049;49.444;8.522;2022-11-15T20:23:12;76847.31;;;-3.47;89.83
13954;BME280;7049;49.444;8.522;2022-11-15T20:28:15;76847.31;;;-3.47;90.28
13954;BME280;7049;49.444;8.522;2022-11-15T20:33:17;76851.47;;;-3.47;90.41
13954;BME280;7049;49.444;8.522;2022-11-15T20:38:20;76847.31;;;-3.47;90.60
13954;BME280;7049;49.444;8.522;2022-11-15T20:43:21;76838.94;;;-3.47;90.17
13954;BME280;7049;49.444;8.522;2022-11-15T20:48:23;76843.13;;;-3.47;90.19
13954;BME280;7049;49.444;8.522;2022-11-15T20:53:26;76826.38;;;-3.47;89.88
13954;BME280;7049;49.444;8.522;2022-11-15T20:58:27;76822.19;;;-3.47;89.84
13954;BME280;7049;49.444;8.522;2022-11-15T21:03:29;76818.00;;;-3.47;89.65
13954;BME280;7049;49.444;8.522;2022-11-15T21:08:32;76828.47;;;-3.47;89.83
13954;BME280;7049;49.444;8.522;2022-11-15T21:13:47;76824.28;;;-3.47;89.75
13954;BME280;7049;49.444;8.522;2022-11-15T21:18:49;76818.00;;;-3.47;89.65
13954;BME280;7049;49.444;8.522;2022-11-15T21:23:52;76820.09;;;-3.47;89.77
13954;BME280;7049;49.444;8.522;2022-11-15T21:28:53;76813.84;;;-3.47;89.46
13954;BME280;7049;49.444;8.522;2022-11-15T21:33:55;76815.94;;;-3.47;89.98
13954;BME280;7049;49.444;8.522;2022-11-15T21:38:57;76811.75;;;-3.47;90.31
13954;BME280;7049;49.444;8.522;2022-11-15T21:44:00;76818.00;;;-3.47;90.51
13954;BME280;7049;49.444;8.522;2022-11-15T21:49:02;76811.75;;;-3.47;90.48
13954;BME280;7049;49.444;8.522;2022-11-15T21:54:06;76809.66;;;-3.47;90.95
13954;BME280;7049;49.444;8.522;2022-11-15T21:59:08;76822.19;;;-3.47;92.03
13954;BME280;7049;49.444;8.522;2022-11-15T22:04:09;76822.19;;;-3.47;93.16
13954;BME280;7049;49.444;8.522;2022-11-15T22:09:12;76830.56;;;-3.47;94.30
13954;BME280;7049;49.444;8.522;2022-11-15T22:14:14;76830.56;;;-3.47;94.94
13954;BME280;7049;49.444;8.522;2022-11-15T22:19:16;76841.03;;;-3.47;95.61
13954;BME280;7049;49.444;8.522;2022-11-15T22:24:19;76836.84;;;-3.47;95.83
13954;BME280;7049;49.444;8.522;2022-11-15T22:29:21;76841.03;;;-3.47;96.28
13954;BME280;7049;49.444;8.522;2022-11-15T22:34:23;76841.03;;;-3.47;96.01
13954;BME280;7049;49.444;8.522;2022-11-15T22:39:25;76834.75;;;-3.47;96.15
13954;BME280;7049;49.444;8.522;2022-11-15T22:44:27;76830.56;;;-3.47;96.43
13954;BME280;7049;49.444;8.522;2022-11-15T22:49:28;76841.03;;;-3.47;96.88
13954;BME280;7049;49.444;8.522;2022-11-15T22:54:31;76845.22;;;-3.47;97.23
13954;BME280;7049;49.444;8.522;2022-11-15T22:59:33;76838.94;;;-3.47;97.31
13954;BME280;7049;49.444;8.522;2022-11-15T23:04:36;76841.03;;;-3.47;96.88
13954;BME280;7049;49.444;8.522;2022-11-15T23:09:39;76834.75;;;-3.47;96.39
13954;BME280;7049;49.444;8.522;2022-11-15T23:14:41;76834.75;;;-3.47;96.49
13954;BME280;7049;49.444;8.522;2022-11-15T23:19:42;76830.56;;;-3.47;96.37
13954;BME280;7049;49.444;8.522;2022-11-15T23:24:45;76818.00;;;-3.47;96.55
13954;BME280;7049;49.444;8.522;2022-11-15T23:29:46;76820.09;;;-3.47;96.74
13954;BME280;7049;49.444;8.522;2022-11-15T23:35:06;76834.75;;;-3.47;97.51
13954;BME280;7049;49.444;8.522;2022-11-15T23:40:11;76830.56;;;-3.47;98.33
13954;BME280;7049;49.444;8.522;2022-11-15T23:45:12;76838.94;;;-3.47;99.03
13954;BME280;7049;49.444;8.522;2022-11-15T23:50:14;76847.31;;;-3.47;99.63
13954;BME280;7049;49.444;8.522;2022-11-15T23:55:17;76851.47;;;-3.47;100.00
